Flight Track Log - Related Links

Times and Time Zones

All times are in EDT time to prevent confusion due to time zone crossing. See the UAL1444 flight status page for this flight to view local times or setup timezone preferences in your user account.


Time Position Orientation Groundspeed Altitude Reporting Facility
EDT Latitude Longitude Course Direction KTS MPH feet Rate Location/Type
Wed 07:22:18 PM 33.9333 -118.4547 59° Northeast 181 208 1,700  Level Los Angeles Center
Wed 07:23:20 PM 33.9114 -118.5242 249° West 219 252 3,700 2,613 Climbing Los Angeles Center
Wed 07:24:00 PM 34.1086 -118.1135 54° Northeast  Level FlightAware Approximate
Wed 07:24:22 PM 33.8608 -118.5911 228° Southwest 257 296 7,100  Level Los Angeles Center
Wed 07:25:00 PM 34.1708 -117.9918 59° Northeast  Level FlightAware Approximate
Wed 07:25:24 PM 33.8133 -118.5411 139° Southeast 255 293 9,500  Level Los Angeles Center
Wed 07:26:00 PM 34.2321 -117.8691 59° Northeast  Level FlightAware Approximate
Wed 07:26:27 PM 33.8678 -118.4722 46° Northeast 294 338 10,900  Level Los Angeles Center
Wed 07:27:00 PM 34.3044 -117.7579 59° Northeast  Level FlightAware Approximate
Wed 07:27:28 PM 33.9444 -118.4150 32° Northeast 348 400 12,700  Level Los Angeles Center
Wed 07:28:30 PM 34.0008 -118.3128 56° Northeast 361 415 15,100 2,274 Climbing Los Angeles Center
Wed 07:29:32 PM 34.0619 -118.2072 55° Northeast 374 430 17,400 2,032 Climbing Los Angeles Center
Wed 07:30:34 PM 34.1239 -118.0983 55° Northeast 387 445 19,300 1,790 Climbing Los Angeles Center
Wed 07:31:36 PM 34.1864 -117.9856 56° Northeast 398 458 21,100 1,887 Climbing Los Angeles Center
Wed 07:32:38 PM 34.2658 -117.8444 56° Northeast 419 482 23,200 1,790 Climbing Los Angeles Center
Wed 07:33:40 PM 34.3328 -117.7242 56° Northeast 429 494 24,800 1,306 Climbing Los Angeles Center
Wed 07:34:42 PM 34.3994 -117.6047 56° Northeast 438 504 25,900 1,210 Climbing Los Angeles Center
Wed 07:35:44 PM 34.4692 -117.4778 56° Northeast 452 520 27,300 1,210 Climbing Los Angeles Center
Wed 07:36:46 PM 34.5400 -117.3494 56° Northeast 461 531 28,400 1,016 Climbing Los Angeles Center
Wed 07:37:48 PM 34.6278 -117.1897 56° Northeast 475 547 29,400 871 Climbing Los Angeles Center
Wed 07:38:50 PM 34.7025 -117.0533 56° Northeast 486 559 30,200 1,016 Climbing Los Angeles Center
Wed 07:39:52 PM 34.7778 -116.9153 56° Northeast 494 568 31,500 1,210 Climbing Los Angeles Center
Wed 07:40:54 PM 34.8525 -116.7775 57° Northeast 492 566 32,700 1,065 Climbing Los Angeles Center
Wed 07:41:56 PM 34.9267 -116.6411 56° Northeast 488 562 33,700 968 Climbing Los Angeles Center
Wed 07:42:58 PM 35.0281 -116.4919 50° Northeast 479 551 34,700 629 Climbing Los Angeles Center
Wed 07:44:00 PM 35.1211 -116.3761 45° Northeast 479 551 35,000 145 Climbing Los Angeles Center
Wed 07:45:02 PM 35.2150 -116.2594 45° Northeast 484 557 35,000  Level Los Angeles Center
Wed 07:47:03 PM 35.4056 -116.0242 45° Northeast 481 554 35,000  Level Salt Lake Center
Wed 07:48:05 PM 35.4992 -115.9058 46° Northeast 482 555 35,000  Level Salt Lake Center
Wed 07:49:07 PM 35.5914 -115.7878 46° Northeast 481 554 35,000  Level Salt Lake Center
Wed 07:50:09 PM 35.6828 -115.6706 46° Northeast 478 550 35,000  Level Salt Lake Center
Wed 07:51:11 PM 35.7925 -115.5300 46° Northeast 477 549 35,000  Level Salt Lake Center
Wed 07:52:16 PM 35.8850 -115.4108 46° Northeast 474 545 35,000  Level Los Angeles Center
Wed 07:53:18 PM 35.9756 -115.2939 46° Northeast 476 548 35,000  Level Los Angeles Center
Wed 07:54:20 PM 36.0636 -115.1789 47° Northeast 467 537 35,000  Level Los Angeles Center
Wed 07:55:22 PM 36.1583 -115.0236 53° Northeast 474 545 35,000  Level Los Angeles Center
Wed 07:56:24 PM 36.2350 -114.8936 54° Northeast 472 543 35,000  Level Los Angeles Center
Wed 07:57:26 PM 36.3108 -114.7642 54° Northeast 468 539 35,000  Level Los Angeles Center
Wed 07:58:29 PM 36.3861 -114.6331 54° Northeast 468 539 35,000  Level Los Angeles Center
Wed 07:59:31 PM 36.4603 -114.5028 55° Northeast 465 535 35,000  Level Los Angeles Center
Wed 08:00:33 PM 36.5497 -114.3472 54° Northeast 463 533 35,000  Level Los Angeles Center
Wed 08:01:35 PM 36.6239 -114.2169 55° Northeast 462 532 35,000  Level Los Angeles Center
Wed 08:02:37 PM 36.6919 -114.0992 54° Northeast 464 534 35,000  Level Los Angeles Center
Wed 08:03:39 PM 36.7814 -113.9411 55° Northeast 465 535 35,000  Level Los Angeles Center
Wed 08:04:41 PM 36.8561 -113.8097 55° Northeast 465 535 35,000  Level Los Angeles Center
Wed 08:05:43 PM 36.9319 -113.6778 54° Northeast 468 539 35,000  Level Los Angeles Center
Wed 08:06:45 PM 37.0050 -113.5447 55° Northeast 466 536 35,000  Level Los Angeles Center
Wed 08:07:47 PM 37.0792 -113.4153 54° Northeast 461 531 35,000  Level Los Angeles Center
Wed 08:08:41 PM 37.1497 -113.2842 56° Northeast 458 527 35,000  Level Salt Lake Center
Wed 08:09:43 PM 37.2228 -113.1539 55° Northeast 458 527 35,000  Level Salt Lake Center
Wed 08:10:45 PM 37.2931 -113.0258 55° Northeast 452 520 35,000  Level Salt Lake Center
Wed 08:11:47 PM 37.3647 -112.8969 55° Northeast 453 521 35,000  Level Salt Lake Center
Wed 08:12:48 PM 37.4494 -112.7428 55° Northeast 456 525 35,000  Level Salt Lake Center
Wed 08:13:50 PM 37.5208 -112.6150 55° Northeast 456 525 35,000  Level Salt Lake Center
Wed 08:14:52 PM 37.5911 -112.4850 56° Northeast 455 524 35,000  Level Salt Lake Center
Wed 08:15:54 PM 37.6625 -112.3550 55° Northeast 454 522 35,000  Level Salt Lake Center
Wed 08:16:55 PM 37.7339 -112.2250 55° Northeast 454 522 35,000  Level Salt Lake Center
Wed 08:17:57 PM 37.8236 -112.0756 53° Northeast 448 516 35,000  Level Salt Lake Center
Wed 08:18:59 PM 37.8956 -111.9506 54° Northeast 443 510 35,000  Level Salt Lake Center
Wed 08:20:00 PM 37.9672 -111.8253 54° Northeast 441 507 35,000  Level Salt Lake Center
Wed 08:21:02 PM 38.0392 -111.7003 54° Northeast 441 507 35,000  Level Salt Lake Center
Wed 08:22:04 PM 38.1097 -111.5753 54° Northeast 438 504 35,000  Level Salt Lake Center
Wed 08:23:06 PM 38.1806 -111.4506 54° Northeast 437 503 35,000 49 Level Salt Lake Center
Wed 08:24:07 PM 38.2517 -111.3250 54° Northeast 438 504 35,100 390 Climbing Salt Lake Center
Wed 08:25:09 PM 38.3353 -111.1742 55° Northeast 435 501 35,800 581 Climbing Salt Lake Center
Wed 08:26:11 PM 38.4069 -111.0486 54° Northeast 439 505 36,300 484 Climbing Salt Lake Center
Wed 08:27:13 PM 38.4803 -110.9167 55° Northeast 443 510 36,800 293 Climbing Salt Lake Center
Wed 08:28:14 PM 38.5486 -110.7919 55° Northeast 447 514 36,900 49 Climbing Salt Lake Center
Wed 08:29:16 PM 38.6286 -110.6464 55° Northeast 448 516 36,900 48 Level Salt Lake Center
Wed 08:30:18 PM 38.6983 -110.5214 54° Northeast 451 519 37,000 49 Climbing Salt Lake Center
Wed 08:31:19 PM 38.7658 -110.3969 55° Northeast 445 512 37,000  Level Salt Lake Center
Wed 08:32:09 PM 38.8333 -110.2700 56° Northeast 449 517 37,000  Level Denver Center
Wed 08:33:11 PM 38.8894 -110.1644 56° Northeast 449 517 37,000  Level Denver Center
Wed 08:34:13 PM 38.9800 -109.9964 55° Northeast 448 516 37,000  Level Denver Center
Wed 08:35:15 PM 39.0492 -109.8708 55° Northeast 449 517 37,000  Level Denver Center
Wed 08:36:17 PM 39.1164 -109.7453 55° Northeast 445 512 37,000  Level Denver Center
Wed 08:37:19 PM 39.1953 -109.5983 55° Northeast 445 512 37,000  Level Denver Center
Wed 08:38:21 PM 39.2611 -109.4731 56° Northeast 441 507 37,000  Level Denver Center
Wed 08:39:23 PM 39.3389 -109.3292 55° Northeast 437 503 37,000  Level Denver Center
Wed 08:40:25 PM 39.4036 -109.2053 56° Northeast 434 499 37,000  Level Denver Center
Wed 08:41:27 PM 39.4794 -109.0636 55° Northeast 430 495 37,000  Level Denver Center
Wed 08:42:29 PM 39.5433 -108.9422 56° Northeast 426 490 37,000  Level Denver Center
Wed 08:43:31 PM 39.6183 -108.7975 56° Northeast 428 493 37,000  Level Denver Center
Wed 08:44:32 PM 39.6658 -108.7056 56° Northeast 430 495 37,000  Level Denver Center
Wed 08:45:34 PM 39.7511 -108.5428 56° Northeast 426 490 37,000  Level Denver Center
Wed 08:46:48 PM 39.8142 -108.4200 56° Northeast 428 493 37,000  Level Denver Center
Wed 08:47:50 PM 39.9011 -108.2544 56° Northeast 432 497 37,000  Level Denver Center
Wed 08:48:52 PM 39.9739 -108.1089 57° Northeast 429 494 37,000  Level Denver Center
Wed 08:49:54 PM 40.0372 -107.9831 57° Northeast 434 499 37,000  Level Denver Center
Wed 08:50:56 PM 40.1042 -107.8303 60° Northeast 432 497 37,000  Level Denver Center
Wed 08:51:58 PM 40.1539 -107.6958 64° Northeast 431 496 37,000  Level Denver Center
Wed 08:53:00 PM 40.2058 -107.5619 63° Northeast 431 496 37,000  Level Denver Center
Wed 08:54:01 PM 40.2631 -107.4069 64° Northeast 426 490 37,000  Level Denver Center
Wed 08:55:03 PM 40.3125 -107.2742 64° Northeast 424 488 37,000  Level Denver Center
Wed 08:56:05 PM 40.3558 -107.1619 63° Northeast 430 495 37,000  Level Denver Center
Wed 08:57:07 PM 40.4211 -106.9850 64° Northeast 424 488 37,000  Level Denver Center
Wed 08:58:08 PM 40.4644 -106.8725 63° Northeast 429 494 37,000  Level Denver Center
Wed 08:59:11 PM 40.5325 -106.6847 64° Northeast 430 495 37,000  Level Denver Center
Wed 09:00:12 PM 40.5856 -106.5433 64° Northeast 430 495 37,000  Level Denver Center
Wed 09:01:14 PM 40.6381 -106.3967 65° Northeast 432 497 37,000  Level Denver Center
Wed 09:02:16 PM 40.6875 -106.2594 65° Northeast 434 499 37,000  Level Denver Center
Wed 09:03:18 PM 40.7428 -106.1119 64° Northeast 435 501 37,000  Level Denver Center
Wed 09:04:20 PM 40.7942 -105.9664 65° Northeast 436 502 37,000  Level Denver Center
Wed 09:05:21 PM 40.8456 -105.8219 65° Northeast 435 501 37,000  Level Denver Center
Wed 09:06:23 PM 40.9044 -105.6481 66° East 434 499 37,000  Level Denver Center
Wed 09:07:25 PM 40.9544 -105.5092 64° Northeast 436 502 37,000  Level Denver Center
Wed 09:08:27 PM 41.0119 -105.3467 65° Northeast 437 503 37,000  Level Denver Center
Wed 09:09:29 PM 41.0603 -105.2067 65° Northeast 438 504 37,000  Level Denver Center
Wed 09:10:30 PM 41.1092 -105.0681 65° Northeast 436 502 37,000  Level Denver Center
Wed 09:11:32 PM 41.1653 -104.9047 65° Northeast 436 502 37,000  Level Denver Center
Wed 09:12:34 PM 41.2050 -104.7875 66° East 437 503 37,000  Level Denver Center
Wed 09:13:36 PM 41.2444 -104.5878 75° East 437 503 37,000  Level Denver Center
Wed 09:14:37 PM 41.2706 -104.4381 77° East 436 502 37,000  Level Denver Center
Wed 09:15:39 PM 41.3022 -104.2647 76° East 435 501 37,000  Level Denver Center
Wed 09:16:41 PM 41.3275 -104.1175 77° East 429 494 37,000  Level Denver Center
Wed 09:17:43 PM 41.3592 -103.9447 76° East 430 495 37,000  Level Denver Center
Wed 09:18:45 PM 41.3847 -103.7969 77° East 429 494 37,000  Level Denver Center
Wed 09:19:46 PM 41.4144 -103.6217 77° East 433 498 37,000  Level Denver Center
Wed 09:20:48 PM 41.4400 -103.4739 77° East 432 497 37,000  Level Denver Center
Wed 09:21:50 PM 41.4650 -103.3236 77° East 434 499 37,000  Level Denver Center
Wed 09:22:52 PM 41.4942 -103.1478 77° East 436 502 37,000  Level Denver Center
Wed 09:23:53 PM 41.5203 -102.9961 77° East 439 505 37,000  Level Denver Center
Wed 09:24:56 PM 41.5497 -102.8197 77° East 437 503 37,000  Level Denver Center
Wed 09:25:57 PM 41.5728 -102.6700 78° East 434 499 37,000  Level Denver Center
Wed 09:26:59 PM 41.6014 -102.4969 77° East 438 504 37,000  Level Denver Center
Wed 09:28:00 PM 41.6272 -102.3447 77° East 439 505 37,000  Level Denver Center
Wed 09:29:02 PM 41.6547 -102.1650 78° East 442 509 37,000  Level Denver Center
Wed 09:30:16 PM 41.6786 -102.0097 78° East 445 512 37,000  Level Denver Center
Wed 09:31:18 PM 41.7131 -101.8003 78° East 449 517 37,000  Level Denver Center
Wed 09:32:20 PM 41.7367 -101.6442 78° East 447 514 37,000  Level Denver Center
Wed 09:33:22 PM 41.7633 -101.4603 79° East 448 516 37,000  Level Denver Center
Wed 09:34:23 PM 41.7839 -101.3286 78° East 450 518 37,000  Level Denver Center
Wed 09:35:25 PM 41.8153 -101.1194 79° East 448 516 37,000  Level Denver Center
Wed 09:36:27 PM 41.8383 -100.9611 79° East 451 519 37,000  Level Denver Center
Wed 09:37:41 PM 41.8608 -100.8047 79° East 448 516 37,000  Level Denver Center
Wed 09:38:43 PM 41.8917 -100.5922 79° East 453 521 37,000  Level Denver Center
Wed 09:39:45 PM 41.9186 -100.4081 79° East 450 518 37,000  Level Denver Center
Wed 09:40:47 PM 41.9400 -100.2475 80° East 453 521 37,000  Level Denver Center
Wed 09:41:48 PM 41.9592 -100.1158 79° East 452 520 37,000  Level Denver Center
Wed 09:42:50 PM 41.9889 -99.9022 79° East 453 521 37,000  Level Denver Center
Wed 09:43:52 PM 42.0103 -99.7397 80° East 460 529 37,000  Level Denver Center
Wed 09:44:54 PM 42.0356 -99.5514 80° East 459 528 37,000  Level Denver Center
Wed 09:45:56 PM 42.0561 -99.3964 80° East 456 525 37,000  Level Denver Center
Wed 09:46:57 PM 42.0783 -99.2303 80° East 451 519 37,000  Level Denver Center
Wed 09:47:59 PM 42.0992 -99.0622 80° East 453 521 37,000  Level Denver Center
Wed 09:49:01 PM 42.1236 -98.8625 81° East 449 517 37,000  Level Denver Center
Wed 09:49:58 PM 42.1300 -98.7625 85° East 451 519 37,000  Level Minneapolis Center
Wed 09:51:00 PM 42.1444 -98.5597 84° East 452 520 37,000  Level Minneapolis Center
Wed 09:52:02 PM 42.1572 -98.3575 85° East 451 519 37,000  Level Minneapolis Center
Wed 09:53:03 PM 42.1689 -98.1897 85° East 450 518 37,000  Level Minneapolis Center
Wed 09:54:05 PM 42.1794 -98.0208 85° East 451 519 37,000  Level Minneapolis Center
Wed 09:55:06 PM 42.1886 -97.8511 86° East 451 519 37,000  Level Minneapolis Center
Wed 09:56:08 PM 42.1983 -97.6983 85° East 456 525 37,000  Level Minneapolis Center
Wed 09:57:09 PM 42.2108 -97.4925 85° East 458 527 37,000  Level Minneapolis Center
Wed 09:58:11 PM 42.2211 -97.3200 85° East 460 529 37,000  Level Minneapolis Center
Wed 09:59:12 PM 42.2306 -97.1447 86° East 465 535 37,000  Level Minneapolis Center
Wed 10:00:14 PM 42.2394 -96.9697 86° East 467 537 37,000  Level Minneapolis Center
Wed 10:01:15 PM 42.2486 -96.7925 86° East 470 541 37,000  Level Minneapolis Center
Wed 10:02:17 PM 42.2581 -96.6158 86° East 472 543 37,000  Level Minneapolis Center
Wed 10:03:19 PM 42.2669 -96.4361 86° East 475 547 37,000  Level Minneapolis Center
Wed 10:04:20 PM 42.2750 -96.2578 86° East 477 549 37,000  Level Minneapolis Center
Wed 10:05:21 PM 42.2836 -96.0761 86° East 479 551 37,000  Level Minneapolis Center
Wed 10:06:23 PM 42.2917 -95.8956 86° East 481 554 37,000  Level Minneapolis Center
Wed 10:07:25 PM 42.3006 -95.6797 87° East 477 549 37,000  Level Minneapolis Center
Wed 10:08:26 PM 42.3064 -95.5344 87° East 481 554 37,000  Level Minneapolis Center
Wed 10:09:39 PM 42.3150 -95.3203 87° East 477 549 37,000  Level Minneapolis Center
Wed 10:10:53 PM 42.3222 -95.1047 87° East 479 551 37,000  Level Minneapolis Center
Wed 10:11:55 PM 42.3306 -94.8897 87° East 477 549 37,000  Level Minneapolis Center
Wed 10:12:57 PM 42.3375 -94.7106 87° East 479 551 37,000  Level Minneapolis Center
Wed 10:13:58 PM 42.3428 -94.5306 88° East 478 550 37,000  Level Minneapolis Center
Wed 10:14:59 PM 42.3447 -94.3864 89° East 479 551 37,000  Level Minneapolis Center
Wed 10:16:01 PM 42.3539 -94.1625 87° East 470 541 37,000  Level Minneapolis Center
Wed 10:17:03 PM 42.3578 -93.9886 88° East 468 539 37,000  Level Minneapolis Center
Wed 10:18:04 PM 42.3633 -93.8133 87° East 471 542 37,000  Level Minneapolis Center
Wed 10:19:06 PM 42.3672 -93.6403 88° East 467 537 37,000  Level Minneapolis Center
Wed 10:20:07 PM 42.3725 -93.4292 88° East 472 543 37,000  Level Minneapolis Center
Wed 10:21:09 PM 42.3767 -93.2533 88° East 473 544 37,000  Level Minneapolis Center
Wed 10:22:22 PM 42.3806 -93.0783 88° East 472 543 37,000  Level Minneapolis Center
Wed 10:23:24 PM 42.3836 -92.8644 89° East 478 550 37,000  Level Minneapolis Center
Wed 10:24:25 PM 42.3869 -92.6886 88° East 475 547 37,000 -293 Level Minneapolis Center
Wed 10:25:27 PM 42.3903 -92.4769 89° East 475 547 36,400 -634 Descending Minneapolis Center
Wed 10:26:28 PM 42.3922 -92.3000 89° East 476 548 35,700 -683 Descending Minneapolis Center
Wed 10:27:30 PM 42.3939 -92.1231 89° East 478 550 35,000 -732 Descending Minneapolis Center
Wed 10:27:50 PM 42.3950 -92.0514 89° East 477 549 34,700 -732 Descending Chicago Center
Wed 10:28:52 PM 42.3956 -91.8761 90° East 476 548 34,000 -634 Descending Chicago Center
Wed 10:29:53 PM 42.3981 -91.7039 89° East 469 540 33,400 -634 Descending Chicago Center
Wed 10:30:55 PM 42.4000 -91.5317 89° East 469 540 32,700 -683 Descending Chicago Center
Wed 10:31:56 PM 42.3997 -91.3594 90° East 467 537 32,000 -689 Descending Chicago Center
Wed 10:32:57 PM 42.4006 -91.1558 90° East 462 532 31,300 -488 Descending Chicago Center
Wed 10:33:59 PM 42.4003 -90.9839 90° East 463 533 31,000 -146 Descending Chicago Center
Wed 10:35:00 PM 42.4011 -90.8150 90° East 458 527 31,000  Level Chicago Center
Wed 10:36:01 PM 42.4072 -90.6475 87° East 455 524 31,000  Level Chicago Center
Wed 10:37:03 PM 42.4247 -90.4783 82° East 459 528 31,000 -98 Level Chicago Center
Wed 10:38:04 PM 42.4411 -90.3119 82° East 453 521 30,800 -732 Descending Chicago Center
Wed 10:39:06 PM 42.4597 -90.1089 83° East 458 527 29,500 -1,512 Descending Chicago Center
Wed 10:40:07 PM 42.4781 -89.9383 82° East 462 532 27,700 -2,164 Descending Chicago Center
Wed 10:41:08 PM 42.4828 -89.7519 88° East 462 532 25,100 -2,244 Descending Chicago Center
Wed 10:42:10 PM 42.4689 -89.5900 97° East 442 509 23,100 -2,098 Descending Chicago Center
Wed 10:43:11 PM 42.4553 -89.4294 97° East 433 498 20,800 -2,262 Descending Chicago Center
Wed 10:44:12 PM 42.4439 -89.2750 96° East 419 482 18,500 -2,146 Descending Chicago Center
Wed 10:45:14 PM 42.4308 -89.1264 97° East 402 463 16,400 -2,000 Descending Chicago Center
Wed 10:46:15 PM 42.4178 -88.9839 97° East 386 444 14,400 -2,016 Descending Chicago Center
Wed 10:47:16 PM 42.4058 -88.8461 97° East 372 428 12,300 -1,854 Descending Chicago Center
Wed 10:48:18 PM 42.3939 -88.7133 97° East 359 413 10,600 -1,317 Descending Chicago Center
Wed 10:49:19 PM 42.3811 -88.5739 97° East 324 373 9,600 -885 Descending Chicago Center
Wed 10:50:20 PM 42.3661 -88.4675 101° East 301 346 8,800 -829 Descending Chicago Center
Wed 10:51:22 PM 42.3303 -88.3725 117° Southeast 281 323 7,900 -439 Descending Chicago Center
Wed 10:52:23 PM 42.2767 -88.3217 145° Southeast 262 302 7,900  Level Chicago Center
Wed 10:53:24 PM 42.2142 -88.3175 177° South 225 259 7,900 49 Level Chicago Center
Wed 10:54:26 PM 42.1581 -88.3119 176° South 207 238 8,000  Climbing Chicago Center
Wed 10:55:27 PM 42.1033 -88.3050 175° South 201 231 7,900 -393 Descending Chicago Center
Wed 10:56:28 PM 42.0522 -88.3225 194° South 193 222 7,200 -934 Descending Chicago Center
Wed 10:57:29 PM 41.9986 -88.3397 193° South 197 227 6,000 -1,073 Descending Chicago Center
Wed 10:58:31 PM 41.9653 -88.2658 121° Southeast 207 238 5,000 -829 Descending Chicago Center
Wed 10:59:32 PM 41.9681 -88.1917 87° East 200 230 4,300 -689 Descending Chicago Center

Login

Don't have an account? Register now (free) for customized features, flight alerts, and more!